Terminal Aerodrome Forecast
Issued by NWS

Home | Current Version | Previous Version | Text Only | Print | Product List | Glossary Off
Versions: 1 2 3 4 5 6 7 8 9 10 11 12 13 14 15 16 17 18 19 20 21 22 23 24 25 26

000
FTUS41 KCLE 150200 AAA
TAFFDY
TAF AMD
KFDY 150235Z 1503/1524 00000KT P6SM SCT100
      TEMPO 1510/1513 5SM BR
     FM151300 20005KT P6SM SCT100 BKN250
     FM151700 22008KT P6SM SCT045 OVC080
     FM152000 25008KT P6SM -RA BKN045 OVC100
     FM152300 27008KT 4SM -RA BR OVC030=

USA.gov is the U.S. government's official web portal to all federal, state and local government web resources and services.